昆明 の空港の天気 - METARとTAF

昆明巫家餽国際空港 ( ZPPP / KMG ) - 中国 雲南省昆明市
飛行場実況気象(Metar)
観測時間10/16 14:00 CST (10/16 06:00 UTC)
風向・風速西南西 10m/s
視程10km以上
天気現象
全天の4割程度の雲 雲底高度 700m
気温21℃
湿度40%
気圧1020hPa
METARZPPP 160600Z 24010MPS 9999 SCT023 21/07 Q1020 NOSIG
過去の天気等 Google飛行場航空写真 Wunderground天気予報

過去48時間のMETAR

飛行場予報(TAF)
発表時間: 10/16 09:27 CST (10/16 01:27 UTC)
予報対象時間: 16日14時 CST ~ 17日14時 CST
風向・風速南西 9m/s 瞬間風速 14m/s
視程10km以上
全天の4割程度の雲 雲底高度 700m
16日20時 CST ~ 16日21時 CST に徐々に
風向・風速南西 4m/s
TAF ZPPP 160127Z 1606/1706 22009G14MPS 9999 SCT023 TX22/1608Z TN13/1623Z
BECMG 1612/1613 22004MPS